createdAt,value
2022-12-04T00:02:12.528Z,6.97
2022-12-04T00:04:38.856Z,7.02
2022-12-04T00:07:05.236Z,7.17
2022-12-04T00:09:31.511Z,7.23
2022-12-04T00:11:58.216Z,7.32
2022-12-04T00:14:24.500Z,7.36
2022-12-04T00:16:50.840Z,7.13
2022-12-04T00:19:17.202Z,7.20
2022-12-04T00:21:45.111Z,7.29
2022-12-04T00:24:11.406Z,7.36
2022-12-04T00:26:37.673Z,7.36
2022-12-04T00:29:03.949Z,7.42
2022-12-04T00:31:30.355Z,7.46
2022-12-04T00:33:56.776Z,7.42
2022-12-04T00:36:23.618Z,7.32
2022-12-04T00:38:49.888Z,7.39
2022-12-04T00:41:16.768Z,7.58
2022-12-04T00:43:43.063Z,7.65
2022-12-04T00:46:09.446Z,7.76
2022-12-04T00:48:35.908Z,7.89
2022-12-04T00:51:05.371Z,7.88
2022-12-04T00:53:31.897Z,7.86
2022-12-04T00:55:58.209Z,7.84
2022-12-04T00:58:24.475Z,7.90
2022-12-04T01:00:50.947Z,7.91
2022-12-04T01:03:17.330Z,7.89
2022-12-04T01:05:44.382Z,7.94
2022-12-04T01:08:10.776Z,7.89
2022-12-04T01:10:40.110Z,7.86
2022-12-04T01:13:06.396Z,7.75
2022-12-04T01:15:32.684Z,7.67
2022-12-04T01:17:58.970Z,7.69
2022-12-04T01:20:25.260Z,7.62
2022-12-04T01:22:51.523Z,7.56
2022-12-04T01:25:17.817Z,7.45
2022-12-04T01:27:44.078Z,7.42
2022-12-04T01:30:10.535Z,7.54
2022-12-04T01:32:36.828Z,7.70
2022-12-04T01:35:03.156Z,7.83
2022-12-04T01:37:32.256Z,7.75
2022-12-04T01:39:58.601Z,7.80
2022-12-04T01:42:24.862Z,7.76
2022-12-04T01:45:09.982Z,7.77
2022-12-04T01:47:36.277Z,7.56
2022-12-04T01:50:02.547Z,7.40
2022-12-04T01:52:28.808Z,7.36
2022-12-04T01:54:56.597Z,7.35
2022-12-04T01:57:23.548Z,7.29
2022-12-04T01:59:57.503Z,7.33
2022-12-04T02:02:32.012Z,7.42
2022-12-04T02:04:58.432Z,7.48
2022-12-04T02:07:24.709Z,7.65
2022-12-04T02:09:55.902Z,7.74
2022-12-04T02:12:23.925Z,7.92
2022-12-04T02:14:53.213Z,8.00
2022-12-04T02:17:25.996Z,8.11
2022-12-04T02:20:11.936Z,8.02
2022-12-04T02:22:56.964Z,7.96
2022-12-04T02:25:29.469Z,8.04
2022-12-04T02:28:05.036Z,8.06
2022-12-04T02:30:31.420Z,7.90
2022-12-04T02:33:00.775Z,7.85
2022-12-04T02:35:26.987Z,7.88
2022-12-04T02:38:05.477Z,7.97
2022-12-04T02:40:34.186Z,7.95
2022-12-04T02:43:08.600Z,8.00
2022-12-04T02:45:56.468Z,8.09
2022-12-04T02:48:22.769Z,8.06
2022-12-04T02:50:49.952Z,8.01
2022-12-04T02:53:17.577Z,8.02
2022-12-04T02:55:44.829Z,8.02
2022-12-04T02:58:31.388Z,7.99
2022-12-04T03:00:57.861Z,7.86
2022-12-04T03:03:24.538Z,7.65
2022-12-04T03:05:50.791Z,7.57
2022-12-04T03:08:17.675Z,7.54
2022-12-04T03:10:45.445Z,7.44
2022-12-04T03:13:13.496Z,7.36
2022-12-04T03:15:42.814Z,7.37
2022-12-04T03:18:16.888Z,7.25
2022-12-04T03:20:43.155Z,7.21
2022-12-04T03:23:10.872Z,7.25
2022-12-04T03:25:38.071Z,7.25
2022-12-04T03:28:05.396Z,7.27
2022-12-04T03:30:34.291Z,7.31
2022-12-04T03:33:11.659Z,7.36
2022-12-04T03:35:41.770Z,7.38
2022-12-04T03:38:07.969Z,7.44
2022-12-04T03:40:40.587Z,7.49
2022-12-04T03:43:25.672Z,7.69
2022-12-04T03:45:56.451Z,7.70
2022-12-04T03:48:36.626Z,7.65
2022-12-04T03:51:13.072Z,7.69
2022-12-04T03:53:39.857Z,7.85
2022-12-04T03:56:10.711Z,7.88
2022-12-04T03:58:37.297Z,7.92
2022-12-04T04:01:03.971Z,7.84
2022-12-04T04:03:31.654Z,7.85
2022-12-04T04:06:02.218Z,7.92
2022-12-04T04:08:33.862Z,8.06
2022-12-04T04:11:00.227Z,8.13
2022-12-04T04:13:46.357Z,8.07
2022-12-04T04:16:32.063Z,8.00
2022-12-04T04:19:17.099Z,7.90
2022-12-04T04:22:01.940Z,8.05
2022-12-04T04:24:29.632Z,8.11
2022-12-04T04:26:55.964Z,8.08
2022-12-04T04:29:22.259Z,8.02
2022-12-04T04:31:51.930Z,8.24
2022-12-04T04:34:37.096Z,8.24
2022-12-04T04:37:06.340Z,8.26
2022-12-04T04:39:40.212Z,8.28
2022-12-04T04:42:08.099Z,8.52
2022-12-04T04:44:34.347Z,8.66
2022-12-04T04:47:01.784Z,8.68
2022-12-04T04:49:28.178Z,8.34
2022-12-04T04:51:54.600Z,8.46
2022-12-04T04:54:20.873Z,8.38
2022-12-04T04:56:47.292Z,8.29
2022-12-04T04:59:13.703Z,8.08
2022-12-04T05:01:40.138Z,7.96
2022-12-04T05:04:06.573Z,7.96
2022-12-04T05:06:32.844Z,7.98
2022-12-04T05:08:59.143Z,8.16
2022-12-04T05:11:25.436Z,8.30
2022-12-04T05:13:51.855Z,8.43
2022-12-04T05:16:18.294Z,8.55
2022-12-04T05:19:04.737Z,8.59
2022-12-04T05:21:31.175Z,8.40
2022-12-04T05:23:57.454Z,8.59
2022-12-04T05:26:23.756Z,8.58
2022-12-04T05:28:50.122Z,8.21
2022-12-04T05:31:16.459Z,8.06
2022-12-04T05:33:42.747Z,8.08
2022-12-04T05:36:09.517Z,8.06
2022-12-04T05:38:35.850Z,8.29
2022-12-04T05:41:02.532Z,8.36
2022-12-04T05:43:28.829Z,8.45
2022-12-04T05:45:55.110Z,8.63
2022-12-04T05:48:21.389Z,8.76
2022-12-04T05:50:47.645Z,8.83
2022-12-04T05:53:13.908Z,8.70
2022-12-04T05:55:40.167Z,8.60
2022-12-04T05:58:06.443Z,8.57
2022-12-04T06:00:32.708Z,8.59
2022-12-04T06:02:59.033Z,8.58
2022-12-04T06:05:25.351Z,8.42
2022-12-04T06:07:51.687Z,8.19
2022-12-04T06:10:17.993Z,8.44
2022-12-04T06:12:44.355Z,8.46
2022-12-04T06:15:10.685Z,8.65
2022-12-04T06:17:36.956Z,8.76
2022-12-04T06:20:09.538Z,8.73
2022-12-04T06:22:37.671Z,8.75
2022-12-04T06:25:04.085Z,8.75
2022-12-04T06:27:30.358Z,8.58
2022-12-04T06:29:56.905Z,8.59
2022-12-04T06:32:23.333Z,8.71
2022-12-04T06:34:51.417Z,8.54
2022-12-04T06:37:17.688Z,8.42
2022-12-04T06:39:43.977Z,8.12
2022-12-04T06:42:10.257Z,8.01
2022-12-04T06:44:36.535Z,8.18
2022-12-04T06:47:02.867Z,8.23
2022-12-04T06:49:29.161Z,8.18
2022-12-04T06:51:55.451Z,8.11
2022-12-04T06:54:21.785Z,7.99
2022-12-04T06:56:48.355Z,7.97
2022-12-04T06:59:14.619Z,8.03
2022-12-04T07:01:40.965Z,8.22
2022-12-04T07:04:07.471Z,8.24
2022-12-04T07:06:34.534Z,8.29
2022-12-04T07:09:01.661Z,8.38
2022-12-04T07:11:28.453Z,8.51
2022-12-04T07:13:54.742Z,8.63
2022-12-04T07:16:21.253Z,8.26
2022-12-04T07:18:50.187Z,8.19
2022-12-04T07:21:17.456Z,8.44
2022-12-04T07:23:45.698Z,8.51
2022-12-04T07:26:12.497Z,8.57
2022-12-04T07:28:39.374Z,8.37
2022-12-04T07:31:06.066Z,8.01
2022-12-04T07:33:32.478Z,8.17
2022-12-04T07:35:58.884Z,8.13
2022-12-04T07:38:25.199Z,8.38
2022-12-04T07:40:51.476Z,8.41
2022-12-04T07:43:17.753Z,8.36
2022-12-04T07:45:44.068Z,8.27
2022-12-04T07:48:10.422Z,8.24
2022-12-04T07:50:36.698Z,8.07
2022-12-04T07:53:02.963Z,8.12
2022-12-04T07:55:29.237Z,8.29
2022-12-04T07:57:55.521Z,8.16
2022-12-04T08:00:21.854Z,8.27
2022-12-04T08:02:48.121Z,8.32
2022-12-04T08:05:14.420Z,8.36
2022-12-04T08:07:40.745Z,8.41
2022-12-04T08:10:07.249Z,8.46
2022-12-04T08:12:33.541Z,8.55
2022-12-04T08:14:59.857Z,8.59
2022-12-04T08:17:26.213Z,8.63
2022-12-04T08:19:52.678Z,8.70
2022-12-04T08:22:23.415Z,8.61
2022-12-04T08:24:51.403Z,8.51
2022-12-04T08:27:17.677Z,8.63
2022-12-04T08:29:43.951Z,8.62
2022-12-04T08:32:10.236Z,8.66
2022-12-04T08:34:36.500Z,8.79
2022-12-04T08:37:02.752Z,8.83
2022-12-04T08:39:29.022Z,8.90
2022-12-04T08:41:57.095Z,8.89
2022-12-04T08:44:23.758Z,9.00
2022-12-04T08:46:50.130Z,9.08
2022-12-04T08:49:16.463Z,9.18
2022-12-04T08:51:42.792Z,8.90
2022-12-04T08:54:09.129Z,8.76
2022-12-04T08:56:35.575Z,8.76
2022-12-04T08:59:01.847Z,8.84
2022-12-04T09:01:28.302Z,8.94
2022-12-04T09:03:54.766Z,9.05
2022-12-04T09:06:21.091Z,9.14
2022-12-04T09:08:47.370Z,8.58
2022-12-04T09:11:14.441Z,8.58
2022-12-04T09:13:40.858Z,8.47
2022-12-04T09:16:11.336Z,8.41
2022-12-04T09:18:37.679Z,8.40
2022-12-04T09:21:05.047Z,8.54
2022-12-04T09:23:31.351Z,8.77
2022-12-04T09:25:57.669Z,8.94
2022-12-04T09:28:23.979Z,9.05
2022-12-04T09:30:57.514Z,9.01
2022-12-04T09:33:23.803Z,8.62
2022-12-04T09:35:50.080Z,8.63
2022-12-04T09:38:16.360Z,8.73
2022-12-04T09:41:05.649Z,8.45
2022-12-04T09:43:36.330Z,8.40
2022-12-04T09:46:04.169Z,8.83
2022-12-04T09:48:32.279Z,9.08
2022-12-04T09:50:58.548Z,9.27
2022-12-04T09:53:26.241Z,8.84
2022-12-04T09:55:58.691Z,8.69
2022-12-04T09:58:38.224Z,8.88
2022-12-04T10:01:04.493Z,9.08
2022-12-04T10:03:31.083Z,9.23
2022-12-04T10:06:00.340Z,9.41
2022-12-04T10:08:36.300Z,9.53
2022-12-04T10:11:02.524Z,9.58
2022-12-04T10:13:49.146Z,9.45
2022-12-04T10:16:18.598Z,9.44
2022-12-04T10:19:03.510Z,9.49
2022-12-04T10:21:38.917Z,9.55
2022-12-04T10:24:05.183Z,9.55
2022-12-04T10:26:39.411Z,9.59
2022-12-04T10:29:12.244Z,9.30
2022-12-04T10:31:38.669Z,9.00
2022-12-04T10:34:12.653Z,9.10
2022-12-04T10:36:39.018Z,9.25
2022-12-04T10:39:14.821Z,9.42
2022-12-04T10:41:43.487Z,9.50
2022-12-04T10:44:13.080Z,9.61
2022-12-04T10:46:43.211Z,9.69
2022-12-04T10:49:18.452Z,9.82
2022-12-04T10:51:44.731Z,9.83
2022-12-04T10:54:16.615Z,9.83
2022-12-04T10:56:53.218Z,9.86
2022-12-04T10:59:19.521Z,9.90
2022-12-04T11:01:45.860Z,9.90
2022-12-04T11:04:22.680Z,10.00
2022-12-04T11:06:50.118Z,9.86
2022-12-04T11:09:22.793Z,9.57
2022-12-04T11:11:49.097Z,9.27
2022-12-04T11:14:16.584Z,9.37
2022-12-04T11:16:49.886Z,9.48
2022-12-04T11:19:22.250Z,9.66
2022-12-04T11:21:48.643Z,9.80
2022-12-04T11:24:26.325Z,9.38
2022-12-04T11:26:52.636Z,9.24
2022-12-04T11:29:19.188Z,8.99
2022-12-04T11:31:49.548Z,8.85
2022-12-04T11:34:18.203Z,8.62
2022-12-04T11:36:47.516Z,8.50
2022-12-04T11:39:15.386Z,8.14
2022-12-04T11:41:41.681Z,8.32
2022-12-04T11:44:20.244Z,8.46
2022-12-04T11:46:51.323Z,8.07
2022-12-04T11:49:24.179Z,8.32
2022-12-04T11:51:50.419Z,8.15
2022-12-04T11:54:20.826Z,8.12
2022-12-04T11:56:47.518Z,8.12
2022-12-04T11:59:32.566Z,8.51
2022-12-04T12:02:02.878Z,8.54
2022-12-04T12:04:32.408Z,8.34
2022-12-04T12:07:02.262Z,8.78
2022-12-04T12:09:31.824Z,8.92
2022-12-04T12:12:09.809Z,8.36
2022-12-04T12:14:56.383Z,8.68
2022-12-04T12:17:29.129Z,9.11
2022-12-04T12:19:55.636Z,9.21
2022-12-04T12:22:26.092Z,9.40
2022-12-04T12:25:03.159Z,9.42
2022-12-04T12:27:45.675Z,9.56
2022-12-04T12:30:19.059Z,9.48
2022-12-04T12:32:53.860Z,9.63
2022-12-04T12:35:39.969Z,9.65
2022-12-04T12:38:14.967Z,9.76
2022-12-04T12:40:41.327Z,9.92
2022-12-04T12:43:11.098Z,9.91
2022-12-04T12:45:43.170Z,9.88
2022-12-04T12:48:13.651Z,9.89
2022-12-04T12:50:49.400Z,9.88
2022-12-04T12:53:22.802Z,9.87
2022-12-04T12:55:52.987Z,9.89
2022-12-04T12:58:21.788Z,9.70
2022-12-04T13:01:02.478Z,9.70
2022-12-04T13:03:46.967Z,9.70
2022-12-04T13:06:20.791Z,9.52
2022-12-04T13:08:50.153Z,9.69
2022-12-04T13:11:17.967Z,9.78
2022-12-04T13:14:13.765Z,9.83
2022-12-04T13:16:44.275Z,9.37
2022-12-04T13:19:10.499Z,9.22
2022-12-04T13:21:41.579Z,9.24
2022-12-04T13:24:29.488Z,9.38
2022-12-04T13:27:14.116Z,9.53
2022-12-04T13:29:59.412Z,9.53
2022-12-04T13:32:28.533Z,9.56
2022-12-04T13:35:18.007Z,9.56
2022-12-04T13:37:53.510Z,9.43
2022-12-04T13:40:26.533Z,9.53
2022-12-04T13:42:52.819Z,9.46
2022-12-04T13:45:26.509Z,9.46
2022-12-04T13:48:02.330Z,9.58
2022-12-04T13:50:32.192Z,9.62
2022-12-04T13:52:58.601Z,9.64
2022-12-04T13:55:38.102Z,9.51
2022-12-04T13:58:10.463Z,8.95
2022-12-04T14:00:37.271Z,9.14
2022-12-04T14:03:18.834Z,9.31
2022-12-04T14:05:45.119Z,9.37
2022-12-04T14:08:28.030Z,9.26
2022-12-04T14:10:57.301Z,9.25
2022-12-04T14:13:24.358Z,9.29
2022-12-04T14:16:00.136Z,9.32
2022-12-04T14:18:27.885Z,9.37
2022-12-04T14:21:01.196Z,9.46
2022-12-04T14:23:33.413Z,9.50
2022-12-04T14:25:59.909Z,9.47
2022-12-04T14:28:33.950Z,9.52
2022-12-04T14:31:05.007Z,9.53
2022-12-04T14:33:32.161Z,9.58
2022-12-04T14:36:00.801Z,9.30
2022-12-04T14:38:27.129Z,9.01
2022-12-04T14:40:53.653Z,9.05
2022-12-04T14:43:23.436Z,9.12
2022-12-04T14:45:51.318Z,8.82
2022-12-04T14:48:21.853Z,8.89
2022-12-04T14:50:51.074Z,9.10
2022-12-04T14:53:26.406Z,9.33
2022-12-04T14:56:07.780Z,9.28
2022-12-04T14:58:37.154Z,9.23
2022-12-04T15:01:15.902Z,9.21
2022-12-04T15:03:43.049Z,9.14
2022-12-04T15:06:11.895Z,9.11
2022-12-04T15:08:47.635Z,8.99
2022-12-04T15:11:35.099Z,8.90
2022-12-04T15:14:04.357Z,8.88
2022-12-04T15:16:30.718Z,8.96
2022-12-04T15:18:57.640Z,9.02
2022-12-04T15:21:24.614Z,9.01
2022-12-04T15:23:50.877Z,8.73
2022-12-04T15:26:17.869Z,8.60
2022-12-04T15:28:51.036Z,8.67
2022-12-04T15:31:18.761Z,8.66
2022-12-04T15:33:45.089Z,8.71
2022-12-04T15:36:47.037Z,8.34
2022-12-04T15:39:39.543Z,8.23
2022-12-04T15:42:06.611Z,8.24
2022-12-04T15:44:33.524Z,8.26
2022-12-04T15:47:03.531Z,8.17
2022-12-04T15:49:32.949Z,8.00
2022-12-04T15:52:06.670Z,7.54
2022-12-04T15:54:32.956Z,7.67
2022-12-04T15:57:03.227Z,7.98
2022-12-04T15:59:29.560Z,8.18
2022-12-04T16:01:56.032Z,8.24
2022-12-04T16:04:22.765Z,8.29
2022-12-04T16:06:49.988Z,8.28
2022-12-04T16:09:24.409Z,8.36
2022-12-04T16:12:00.605Z,8.28
2022-12-04T16:14:27.183Z,8.45
2022-12-04T16:16:54.223Z,8.50
2022-12-04T16:19:25.910Z,8.38
2022-12-04T16:21:52.200Z,8.33
2022-12-04T16:24:18.461Z,8.15
2022-12-04T16:26:44.763Z,8.31
2022-12-04T16:29:11.054Z,8.29
2022-12-04T16:31:38.117Z,8.28
2022-12-04T16:34:04.512Z,8.16
2022-12-04T16:36:30.772Z,8.15
2022-12-04T16:38:57.084Z,8.21
2022-12-04T16:41:23.391Z,8.12
2022-12-04T16:43:52.761Z,8.12
2022-12-04T16:46:19.074Z,8.29
2022-12-04T16:48:45.391Z,8.33
2022-12-04T16:51:18.819Z,8.13
2022-12-04T16:53:45.160Z,7.78
2022-12-04T16:56:11.520Z,7.44
2022-12-04T16:58:37.839Z,7.25
2022-12-04T17:01:04.278Z,7.59
2022-12-04T17:03:31.242Z,7.64
2022-12-04T17:05:57.716Z,7.67
2022-12-04T17:08:23.997Z,7.20
2022-12-04T17:10:50.451Z,6.95
2022-12-04T17:13:17.290Z,7.16
2022-12-04T17:15:43.655Z,7.30
2022-12-04T17:18:13.922Z,7.40
2022-12-04T17:20:41.227Z,7.36
2022-12-04T17:23:07.706Z,7.48
2022-12-04T17:25:33.980Z,7.61
2022-12-04T17:28:00.252Z,7.51
2022-12-04T17:30:29.206Z,7.44
2022-12-04T17:32:59.120Z,7.55
2022-12-04T17:35:25.405Z,7.59
2022-12-04T17:37:51.691Z,7.31
2022-12-04T17:40:18.038Z,7.08
2022-12-04T17:42:44.334Z,7.42
2022-12-04T17:45:11.459Z,7.38
2022-12-04T17:47:37.762Z,7.37
2022-12-04T17:50:04.789Z,7.40
2022-12-04T17:52:31.157Z,7.48
2022-12-04T17:54:57.523Z,7.46
2022-12-04T17:57:23.945Z,7.33
2022-12-04T17:59:50.532Z,7.48
2022-12-04T18:02:16.869Z,7.52
2022-12-04T18:04:43.155Z,7.51
2022-12-04T18:07:09.447Z,7.59
2022-12-04T18:09:35.877Z,7.72
2022-12-04T18:12:02.147Z,7.76
2022-12-04T18:14:28.599Z,7.75
2022-12-04T18:16:55.395Z,7.84
2022-12-04T18:19:22.282Z,7.88
2022-12-04T18:21:48.609Z,7.71
2022-12-04T18:24:15.052Z,7.57
2022-12-04T18:26:42.546Z,7.32
2022-12-04T18:29:09.324Z,7.39
2022-12-04T18:31:35.671Z,7.47
2022-12-04T18:34:01.979Z,7.49
2022-12-04T18:36:28.923Z,7.49
2022-12-04T18:38:59.060Z,7.44
2022-12-04T18:41:25.402Z,7.15
2022-12-04T18:43:51.722Z,7.27
2022-12-04T18:46:18.076Z,7.39
2022-12-04T18:48:44.723Z,7.51
2022-12-04T18:51:17.936Z,7.35
2022-12-04T18:53:44.215Z,6.66
2022-12-04T18:56:10.536Z,6.71
2022-12-04T18:58:36.787Z,6.81
2022-12-04T19:01:07.151Z,6.64
2022-12-04T19:03:33.843Z,6.79
2022-12-04T19:06:00.153Z,7.05
2022-12-04T19:08:32.702Z,7.22
2022-12-04T19:11:10.244Z,7.17
2022-12-04T19:13:36.509Z,7.29
2022-12-04T19:16:02.981Z,7.36
2022-12-04T19:18:29.888Z,7.09
2022-12-04T19:20:56.240Z,7.05
2022-12-04T19:23:22.634Z,7.07
2022-12-04T19:25:58.579Z,7.10
2022-12-04T19:28:25.308Z,7.10
2022-12-04T19:30:51.623Z,7.05
2022-12-04T19:33:17.912Z,7.20
2022-12-04T19:35:44.252Z,7.17
2022-12-04T19:38:10.692Z,7.24
2022-12-04T19:40:36.962Z,7.21
2022-12-04T19:43:03.388Z,7.24
2022-12-04T19:45:29.759Z,7.28
2022-12-04T19:47:56.130Z,7.34
2022-12-04T19:50:22.407Z,7.29
2022-12-04T19:52:48.716Z,7.25
2022-12-04T19:55:15.012Z,7.20
2022-12-04T19:57:41.317Z,7.10
2022-12-04T20:00:07.900Z,7.07
2022-12-04T20:02:34.597Z,6.97
2022-12-04T20:05:00.998Z,7.09
2022-12-04T20:07:27.345Z,7.13
2022-12-04T20:09:54.102Z,7.17
2022-12-04T20:12:20.366Z,7.11
2022-12-04T20:14:46.660Z,7.02
2022-12-04T20:17:12.991Z,6.92
2022-12-04T20:19:39.324Z,6.89
2022-12-04T20:22:05.589Z,6.73
2022-12-04T20:24:31.940Z,6.51
2022-12-04T20:26:58.232Z,6.31
2022-12-04T20:29:24.521Z,6.55
2022-12-04T20:31:50.805Z,6.75
2022-12-04T20:34:17.641Z,6.82
2022-12-04T20:36:44.595Z,6.90
2022-12-04T20:39:11.361Z,6.92
2022-12-04T20:41:37.874Z,6.87
2022-12-04T20:44:04.811Z,6.74
2022-12-04T20:46:32.224Z,6.75
2022-12-04T20:49:00.353Z,6.81
2022-12-04T20:51:28.092Z,6.88
2022-12-04T20:53:57.952Z,6.82
2022-12-04T20:56:25.940Z,6.78
2022-12-04T20:58:56.393Z,6.80
2022-12-04T21:01:22.761Z,6.74
2022-12-04T21:03:49.062Z,6.99
2022-12-04T21:06:16.311Z,7.06
2022-12-04T21:08:56.916Z,6.96
2022-12-04T21:11:27.625Z,7.14
2022-12-04T21:14:13.055Z,7.13
2022-12-04T21:16:39.384Z,7.03
2022-12-04T21:19:06.522Z,7.10
2022-12-04T21:21:32.898Z,7.00
2022-12-04T21:23:59.162Z,6.76
2022-12-04T21:26:29.075Z,6.67
2022-12-04T21:28:56.254Z,6.79
2022-12-04T21:31:22.658Z,6.81
2022-12-04T21:33:48.955Z,6.88
2022-12-04T21:36:15.258Z,6.97
2022-12-04T21:38:41.580Z,7.08
2022-12-04T21:41:08.189Z,7.16
2022-12-04T21:43:34.676Z,7.18
2022-12-04T21:46:09.159Z,7.24
2022-12-04T21:48:36.295Z,7.22
2022-12-04T21:51:06.171Z,7.00
2022-12-04T21:53:32.429Z,6.74
2022-12-04T21:55:58.712Z,6.80
2022-12-04T21:58:25.453Z,6.97
2022-12-04T22:00:51.764Z,7.11
2022-12-04T22:03:18.107Z,7.11
2022-12-04T22:05:44.457Z,7.26
2022-12-04T22:08:11.152Z,7.22
2022-12-04T22:10:44.082Z,7.26
2022-12-04T22:13:10.526Z,7.00
2022-12-04T22:15:38.215Z,6.43
2022-12-04T22:18:05.310Z,5.67
2022-12-04T22:20:31.572Z,5.85
2022-12-04T22:22:57.855Z,6.13
2022-12-04T22:25:24.147Z,6.61
2022-12-04T22:27:50.414Z,6.87
2022-12-04T22:30:16.846Z,6.95
2022-12-04T22:32:43.133Z,6.84
2022-12-04T22:35:09.440Z,6.99
2022-12-04T22:37:41.108Z,6.78
2022-12-04T22:40:10.630Z,6.89
2022-12-04T22:42:36.888Z,6.95
2022-12-04T22:45:03.216Z,6.97
2022-12-04T22:47:29.539Z,7.10
2022-12-04T22:49:56.207Z,7.16
2022-12-04T22:52:22.687Z,7.24
2022-12-04T22:54:52.016Z,7.30
2022-12-04T22:57:18.516Z,7.33
2022-12-04T22:59:44.992Z,7.36
2022-12-04T23:02:11.312Z,7.40
2022-12-04T23:04:37.662Z,6.96
2022-12-04T23:07:04.029Z,6.95
2022-12-04T23:09:30.327Z,6.90
2022-12-04T23:11:56.653Z,7.14
2022-12-04T23:14:22.948Z,7.34
2022-12-04T23:16:49.375Z,7.22
2022-12-04T23:19:16.275Z,7.14
2022-12-04T23:21:42.641Z,7.18
2022-12-04T23:24:09.066Z,7.04
2022-12-04T23:26:36.213Z,7.17
2022-12-04T23:29:02.678Z,7.04
2022-12-04T23:31:29.320Z,7.05
2022-12-04T23:33:55.645Z,7.32
2022-12-04T23:36:21.961Z,7.16
2022-12-04T23:38:48.463Z,7.04
2022-12-04T23:41:16.075Z,7.14
2022-12-04T23:43:42.378Z,7.32
2022-12-04T23:46:11.376Z,7.29
2022-12-04T23:48:38.240Z,7.20
2022-12-04T23:51:04.530Z,7.36
2022-12-04T23:53:30.799Z,7.38
2022-12-04T23:55:57.862Z,7.54
2022-12-04T23:58:24.207Z,7.57
